Latest Weather Observations for Tennant Creek

IDD60801

Issued at 9:05 am CST Wednesday 3 September 2014 (issued every 30 minutes, with the page automatically refreshed every 10 minutes)

About weather observations | Map of weather stations | Latest weather observations for NT | Other Formats
Station Details ID: 015135 Name: TENNANT CREEK AIRPORT Lat: -19.64 Lon: 134.18 Height: 375.7 m
Data from the previous 72 hours. | See also: Recent months at Tennant Creek
Date/Time
CST
Temp
°C
App
Temp
°C
Dew
Point
Rel
Hum
%
Delta-T
°C
Wind Press
QNH
hPa
Press
MSL
hPa
Rain
since 9 am
mm
Dir
 
Spd
km/h
Gust
km/h
Spd
kts
Gust
kts
03/09:00am 17.5 9.1 -10.6 14 9.9 ESE 28 39 15 21 1022.6 1020.7 0.0
03/08:30am 16.4 8.5 -8.8 17 9.1 ESE 26 39 14 21 1022.6 - 0.0
03/08:00am 15.6 7.8 -8.1 19 8.6 ESE 26 35 14 19 1022.4 - 0.0
03/07:30am 14.5 7.1 -7.0 22 7.9 ESE 24 33 13 18 1022.3 - 0.0
03/07:00am 13.8 7.0 -5.6 25 7.3 ESE 22 30 12 16 1022.0 - 0.0
03/06:30am 13.7 7.3 -4.5 28 7.0 ESE 20 28 11 15 1021.7 - 0.0
03/06:00am 14.1 7.5 -3.7 29 7.0 ESE 22 32 12 17 1021.3 1019.4 0.0
03/05:30am 14.5 8.0 -2.5 31 6.9 ESE 22 30 12 16 1021.1 - 0.0
03/05:00am 14.8 9.0 -1.2 33 6.7 ESE 19 26 10 14 1020.7 - 0.0
03/04:30am 15.2 9.6 -0.2 35 6.6 ESE 19 30 10 16 1020.3 - 0.0
03/04:00am 15.5 9.8 0.3 35 6.6 ESE 20 26 11 14 1020.2 - 0.0
03/03:30am 16.0 10.3 0.5 35 6.8 ESE 20 30 11 16 1020.4 - 0.0
03/03:00am 16.5 10.5 1.0 35 6.9 ESE 22 33 12 18 1020.4 1018.5 0.0
03/02:30am 16.8 10.9 1.5 35 6.9 ESE 22 30 12 16 1020.5 - 0.0
03/02:00am 17.1 11.2 1.7 35 7.0 ESE 22 30 12 16 1020.4 - 0.0
03/01:30am 17.5 11.6 1.7 34 7.2 ESE 22 28 12 15 1020.9 - 0.0
03/01:00am 18.0 12.7 1.9 34 7.4 ESE 19 28 10 15 1021.0 - 0.0
03/12:30am 19.0 13.1 1.6 31 8.0 ESE 22 35 12 19 1021.1 - 0.0
03/12:00am 19.2 13.9 2.0 31 8.0 ESE 19 28 10 15 1021.1 1019.2 0.0
 
Date/Time
CST
Temp
°C
App
Temp
°C
Dew
Point
Rel
Hum
%
Delta-T
°C
Wind Press
QNH
hPa
Press
MSL
hPa
Rain
since 9 am
mm
Dir
 
Spd
km/h
Gust
km/h
Spd
kts
Gust
kts
02/11:30pm 19.7 14.8 1.9 30 8.3 ESE 17 26 9 14 1021.1 - 0.0
02/11:00pm 20.2 14.9 1.7 29 8.6 ESE 19 28 10 15 1021.0 - 0.0
02/10:30pm 20.5 15.2 2.0 29 8.7 ESE 19 28 10 15 1021.0 - 0.0
02/10:00pm 21.2 15.9 1.9 28 9.1 ESE 19 33 10 18 1020.9 - 0.0
02/09:30pm 21.6 16.3 1.9 27 9.3 ESE 19 28 10 15 1020.5 - 0.0
02/09:00pm 22.1 16.7 1.1 25 9.8 ESE 19 26 10 14 1020.2 1018.3 0.0
02/08:30pm 22.1 16.8 -0.3 22 10.2 ESE 17 22 9 12 1020.0 - 0.0
02/08:00pm 22.9 18.4 -0.6 21 10.7 ESE 13 20 7 11 1019.8 - 0.0
02/07:30pm 23.9 19.3 -0.8 19 11.3 E 13 22 7 12 1019.3 - 0.0
02/07:00pm 24.4 19.4 -0.9 18 11.6 E 15 22 8 12 1018.9 - 0.0
02/06:30pm 25.5 19.7 -1.8 16 12.4 E 19 26 10 14 1018.7 - 0.0
02/06:00pm 26.5 20.0 -2.4 15 13.1 E 22 30 12 16 1018.4 1016.4 0.0
02/05:30pm 27.2 21.0 -2.9 13 13.6 E 20 30 11 16 1018.1 - 0.0
02/05:00pm 27.6 20.9 -3.8 12 14.0 ESE 22 32 12 17 1017.9 - 0.0
02/04:30pm 27.8 21.2 -3.2 13 14.0 E 22 32 12 17 1017.5 - 0.0
02/04:00pm 28.4 20.3 -3.5 12 14.4 E 30 41 16 22 1017.5 - 0.0
02/03:30pm 28.7 21.7 -3.7 12 14.6 E 24 39 13 21 1018.0 - 0.0
02/03:00pm 28.2 21.3 -2.6 13 14.1 ESE 24 35 13 19 1018.1 1016.1 0.0
02/02:30pm 28.4 22.3 -2.1 13 14.1 ESE 20 35 11 19 1018.3 - 0.0
02/02:00pm 27.8 19.8 -2.3 14 13.8 E 30 44 16 24 1018.7 - 0.0
02/01:30pm 28.0 20.1 -1.3 14 13.7 E 30 43 16 23 1019.0 - 0.0
02/01:00pm 27.4 20.8 -0.6 16 13.2 ESE 24 35 13 19 1019.4 - 0.0
02/12:30pm 26.6 19.0 0.8 18 12.4 ESE 30 41 16 22 1019.7 - 0.0
02/12:00pm 25.4 18.4 2.0 21 11.4 E 28 46 15 25 1020.2 1018.3 0.0
02/11:59am 25.6 18.5 1.3 20 11.7 E 28 46 15 25 1020.2 - 0.0
02/11:30am 25.4 17.6 2.0 21 11.4 ESE 32 44 17 24 1020.4 - 0.0
02/11:00am 24.5 17.2 2.6 24 10.7 E 30 43 16 23 1020.9 - 0.0
02/10:34am 24.3 16.7 2.9 24 10.5 ESE 32 50 17 27 1021.0 - 0.0
02/10:30am 23.6 16.1 3.3 26 10.0 ESE 32 44 17 24 1021.0 - 0.0
02/10:00am 23.0 13.7 3.2 27 9.7 ESE 41 52 22 28 1021.0 - 0.0
02/09:30am 22.0 13.1 3.3 29 9.1 ESE 39 52 21 28 1021.0 - 0.0
02/09:09am 21.4 12.6 3.5 31 8.7 ESE 39 59 21 32 1021.0 - 0.0
02/09:00am 21.3 12.5 3.4 30 8.7 ESE 39 54 21 29 1020.9 1019.0 0.0
02/08:30am 20.6 12.1 3.1 31 8.4 ESE 37 52 20 28 1020.8 - 0.0
02/08:00am 19.9 12.0 2.2 31 8.3 ESE 33 46 18 25 1020.7 - 0.0
02/07:30am 19.1 10.9 0.4 28 8.4 E 33 48 18 26 1020.2 - 0.0
02/07:00am 18.7 11.2 -1.4 25 8.7 E 28 39 15 21 1019.8 - 0.0
02/06:30am 18.9 12.0 -2.6 23 9.1 E 24 39 13 21 1019.4 - 0.0
02/06:00am 18.6 11.8 -5.6 19 9.6 ESE 22 33 12 18 1019.0 1017.1 0.0
02/05:30am 18.5 11.7 -9.3 14 10.2 ESE 20 28 11 15 1018.7 - 0.0
02/05:00am 20.2 12.3 -14.3 8 11.7 SE 24 39 13 21 1018.3 - 0.0
02/04:30am 17.8 14.4 -2.0 26 8.4 E 6 7 3 4 1017.0 - 0.0
02/04:00am 19.2 14.7 -6.6 17 10.1 E 9 11 5 6 1016.9 - 0.0
02/03:30am 19.3 14.2 -9.9 13 10.7 E 11 13 6 7 1016.9 - 0.0
02/03:00am 18.6 14.0 -8.3 15 10.1 E 9 13 5 7 1017.0 1015.1 0.0
02/02:30am 19.5 15.0 -6.9 16 10.3 E 9 11 5 6 1017.0 - 0.0
02/02:00am 19.4 14.9 -6.6 16 10.2 E 9 9 5 5 1017.2 - 0.0
02/01:30am 19.2 14.6 -7.8 15 10.3 E 9 11 5 6 1017.5 - 0.0
02/01:00am 19.1 14.6 -6.4 17 10.0 E 9 11 5 6 1017.6 - 0.0
02/12:30am 18.8 14.5 -5.1 19 9.6 E 9 9 5 5 1017.6 - 0.0
02/12:00am 18.2 14.5 -2.8 24 8.8 E 7 9 4 5 1017.9 1015.9 0.0
 
Date/Time
CST
Temp
°C
App
Temp
°C
Dew
Point
Rel
Hum
%
Delta-T
°C
Wind Press
QNH
hPa
Press
MSL
hPa
Rain
since 9 am
mm
Dir
 
Spd
km/h
Gust
km/h
Spd
kts
Gust
kts
01/11:30pm 19.4 14.9 -7.2 16 10.3 ESE 9 13 5 7 1018.1 - 0.0
01/11:00pm 22.9 17.5 -13.9 7 13.0 SSE 11 17 6 9 1018.2 - 0.0
01/10:30pm 19.9 15.9 -5.4 17 10.2 ESE 7 9 4 5 1018.1 - 0.0
01/10:00pm 19.6 15.9 -3.2 21 9.6 E 7 9 4 5 1018.1 - 0.0
01/09:30pm 19.0 15.9 0.3 28 8.4 ESE 6 7 3 4 1018.0 - 0.0
01/09:00pm 19.7 16.4 0.2 27 8.8 ESE 7 9 4 5 1017.5 1015.6 0.0
01/08:30pm 20.5 18.4 -0.9 23 9.5 CALM 0 0 0 0 1017.2 - 0.0
01/08:00pm 21.6 18.0 -3.5 18 10.7 SE 6 6 3 3 1016.8 - 0.0
01/07:30pm 24.8 22.0 -7.3 11 13.1 CALM 0 0 0 0 1016.5 - 0.0
01/07:00pm 24.8 22.5 -2.1 17 12.1 CALM 0 0 0 0 1016.1 - 0.0
01/06:30pm 27.8 24.7 0.4 17 13.2 E 6 7 3 4 1015.7 - 0.0
01/06:00pm 29.8 25.5 -8.9 7 16.1 E 7 11 4 6 1015.5 1013.5 0.0
01/05:30pm 30.1 25.6 -11.6 6 16.6 E 7 13 4 7 1015.3 - 0.0
01/05:00pm 30.6 26.6 -7.2 8 16.3 SSW 6 9 3 5 1015.1 - 0.0
01/04:30pm 31.0 26.8 -8.3 7 16.7 SSE 7 15 4 8 1014.8 - 0.0
01/04:00pm 30.7 26.4 -12.1 5 17.0 S 6 13 3 7 1014.8 - 0.0
01/03:30pm 30.5 25.7 -10.5 6 16.7 ESE 9 22 5 12 1015.0 - 0.0
01/03:00pm 30.6 26.4 -7.2 8 16.3 SSE 7 17 4 9 1015.3 1013.3 0.0
01/02:30pm 30.4 26.1 -11.0 6 16.7 S 6 15 3 8 1015.9 - 0.0
01/02:00pm 30.0 25.4 -13.1 5 16.7 ENE 7 13 4 7 1016.3 - 0.0
01/01:30pm 29.2 24.1 -10.0 7 15.9 SE 11 20 6 11 1016.9 - 0.0
01/01:00pm 29.3 24.9 -9.6 7 15.9 ESE 7 13 4 7 1017.4 - 0.0
01/12:30pm 29.3 22.4 -10.4 7 16.0 ENE 20 26 11 14 1018.0 - 0.0
01/12:00pm 28.6 23.9 -5.1 11 14.8 NNE 11 20 6 11 1018.4 1016.4 0.0
01/11:30am 27.8 21.4 -6.5 10 14.6 NE 19 26 10 14 1018.8 - 0.0
01/11:00am 27.7 21.7 -6.9 10 14.6 NNE 17 24 9 13 1019.2 - 0.0
01/10:30am 27.1 21.1 -7.1 10 14.3 NNE 17 24 9 13 1019.6 - 0.0
01/10:00am 26.0 19.7 -5.9 12 13.5 NNE 19 26 10 14 1019.6 - 0.0
01/09:30am 24.8 17.8 -6.8 12 13.0 NE 22 28 12 15 1019.4 - 0.0
01/09:00am 23.9 16.5 -7.2 12 12.6 NE 24 30 13 16 1019.1 1017.2 0.0
01/08:30am 22.8 16.3 -7.7 12 12.1 ENE 19 24 10 13 1018.9 - 0.0
01/08:00am 20.5 15.1 -8.1 14 11.0 E 13 17 7 9 1018.6 - 0.0
01/07:30am 18.9 13.5 -8.1 15 10.2 E 13 15 7 8 1018.4 - 0.0
01/07:00am 17.2 11.8 -8.2 17 9.4 E 13 15 7 8 1018.1 - 0.0
01/06:30am 16.5 10.7 -8.4 17 9.1 E 15 17 8 9 1017.6 - 0.0
01/06:00am 16.4 11.0 -8.1 18 9.0 E 13 15 7 8 1017.1 1015.2 0.0
01/05:30am 15.3 9.9 -8.1 19 8.5 E 13 15 7 8 1016.7 - 0.0
01/05:00am 15.7 10.8 -7.6 19 8.6 E 11 13 6 7 1016.4 - 0.0
01/04:30am 16.0 11.0 -8.0 18 8.8 E 11 13 6 7 1016.0 - 0.0
01/04:00am 17.3 11.9 -9.0 16 9.6 E 13 15 7 8 1015.8 - 0.0
01/03:30am 17.0 11.5 -9.3 15 9.5 E 13 17 7 9 1015.6 - 0.0
01/03:00am 16.3 11.8 -6.7 20 8.7 E 9 11 5 6 1015.6 1013.6 0.0
01/02:30am 17.0 12.6 -6.0 20 8.9 E 9 11 5 6 1015.7 - 0.0
01/02:00am 17.5 13.1 -6.3 19 9.2 ESE 9 11 5 6 1015.9 - 0.0
01/01:30am 19.5 15.2 -8.6 14 10.6 ESE 7 9 4 5 1016.0 - 0.0
01/01:00am 18.8 14.3 -6.6 17 9.9 ESE 9 11 5 6 1016.0 - 0.0
01/12:30am 19.1 14.6 -6.9 16 10.1 E 9 11 5 6 1016.0 - 0.0
01/12:00am 20.1 15.5 -7.4 15 10.7 E 9 11 5 6 1016.3 1014.8 0.0
 
Date/Time
CST
Temp
°C
App
Temp
°C
Dew
Point
Rel
Hum
%
Delta-T
°C
Wind Press
QNH
hPa
Press
MSL
hPa
Rain
since 9 am
mm
Dir
 
Spd
km/h
Gust
km/h
Spd
kts
Gust
kts
31/11:30pm 19.6 15.1 -6.6 16 10.3 E 9 11 5 6 1016.4 - 0.0
31/11:00pm 19.4 15.0 -6.1 17 10.1 E 9 9 5 5 1016.4 - 0.0
31/10:30pm 18.9 15.4 -1.4 25 8.8 E 7 9 4 5 1016.5 - 0.0
31/10:00pm 19.9 15.5 -6.3 16 10.4 E 9 11 5 6 1016.5 - 0.0
31/09:30pm 18.0 14.7 -0.1 29 8.0 E 7 9 4 5 1016.5 - 0.0
31/09:00pm 18.7 15.5 0.8 30 8.1 E 7 9 4 5 1016.4 1014.9 0.0
31/08:30pm 19.9 16.7 0.9 28 8.7 E 7 9 4 5 1016.3 - 0.0
31/08:00pm 20.9 17.2 -3.3 19 10.3 E 7 9 4 5 1016.0 - 0.0
31/07:30pm 22.2 18.5 -2.5 19 10.8 E 7 9 4 5 1015.7 - 0.0
31/07:00pm 23.2 20.6 0.9 23 10.5 E 4 6 2 3 1015.4 - 0.0
31/06:30pm 25.6 21.7 -4.8 13 13.1 E 7 9 4 5 1015.2 - 0.0
31/06:00pm 27.6 22.3 -12.2 6 15.3 ESE 11 15 6 8 1014.8 1013.4 0.0
31/05:30pm 28.3 23.4 -12.4 6 15.7 E 9 15 5 8 1014.7 - 0.0
31/05:00pm 29.0 24.7 -10.8 7 15.9 E 6 11 3 6 1014.5 - 0.0
31/04:30pm 28.8 23.9 -11.7 6 15.9 SE 9 17 5 9 1014.5 - 0.0
31/04:00pm 29.8 25.5 -11.3 6 16.4 SW 6 11 3 6 1014.5 - 0.0
31/03:30pm 28.7 24.2 -11.3 6 15.8 E 7 17 4 9 1014.7 - 0.0
31/03:00pm 28.0 23.1 -11.2 7 15.4 S 9 22 5 12 1015.0 1013.5 0.0
31/02:30pm 28.4 23.0 -8.8 8 15.3 E 13 26 7 14 1015.3 - 0.0
31/02:00pm 29.2 23.8 -13.4 5 16.3 S 11 22 6 12 1015.7 - 0.0
31/01:30pm 27.8 22.2 -11.4 7 15.3 E 13 30 7 16 1016.4 - 0.0
31/01:00pm 27.3 22.0 -12.0 7 15.1 ESE 11 22 6 12 1016.9 - 0.0
31/12:30pm 26.8 21.3 -9.4 8 14.5 E 13 28 7 15 1017.4 - 0.0
31/12:00pm 26.8 20.9 -9.5 8 14.5 ENE 15 24 8 13 1018.0 1016.5 0.0
31/11:30am 26.0 20.5 -9.7 9 14.1 E 13 28 7 15 1018.7 - 0.0
31/11:00am 26.3 20.4 -9.3 9 14.2 E 15 24 8 13 1019.0 - 0.0
31/10:30am 25.4 18.8 -7.2 11 13.4 E 20 28 11 15 1019.2 - 0.0
31/10:00am 24.3 16.8 -8.4 11 13.0 E 24 32 13 17 1019.3 - 0.0
31/09:30am 23.2 15.3 -8.9 11 12.5 E 26 35 14 19 1019.2 - 0.0

Other Formats:

Comma delimited format used in spreadsheet applications
http://www.bom.gov.au/fwo/IDD60801/IDD60801.94238.axf

JavaScript Object Notation format (JSON) in row-major order
http://www.bom.gov.au/fwo/IDD60801/IDD60801.94238.json